sensor_id;sensor_type;location;lat;lon;timestamp;pressure;altitude;pressure_sealevel;temperature;humidity
59757;BME280;45631;51.962;5.974;2023-05-07T00:00:10;101478.94;;;14.68;100.00
59757;BME280;45631;51.962;5.974;2023-05-07T00:02:46;101478.22;;;14.66;100.00
59757;BME280;45631;51.962;5.974;2023-05-07T00:05:15;101484.78;;;14.60;100.00
59757;BME280;45631;51.962;5.974;2023-05-07T00:07:44;101487.00;;;14.66;100.00
59757;BME280;45631;51.962;5.974;2023-05-07T00:10:12;101487.31;;;14.62;100.00
59757;BME280;45631;51.962;5.974;2023-05-07T00:12:40;101480.31;;;14.61;100.00
59757;BME280;45631;51.962;5.974;2023-05-07T00:15:09;101480.31;;;14.61;100.00
59757;BME280;45631;51.962;5.974;2023-05-07T00:17:38;101488.38;;;14.59;100.00
59757;BME280;45631;51.962;5.974;2023-05-07T00:20:08;101488.78;;;14.53;100.00
59757;BME280;45631;51.962;5.974;2023-05-07T00:22:37;101492.78;;;14.59;100.00
59757;BME280;45631;51.962;5.974;2023-05-07T00:25:08;101489.84;;;14.50;100.00
59757;BME280;45631;51.962;5.974;2023-05-07T00:27:36;101480.34;;;14.48;100.00
59757;BME280;45631;51.962;5.974;2023-05-07T00:30:06;101479.84;;;14.43;100.00
59757;BME280;45631;51.962;5.974;2023-05-07T00:32:34;101477.19;;;14.43;100.00
59757;BME280;45631;51.962;5.974;2023-05-07T00:35:08;101470.22;;;14.42;100.00
59757;BME280;45631;51.962;5.974;2023-05-07T00:37:36;101477.31;;;14.41;100.00
59757;BME280;45631;51.962;5.974;2023-05-07T00:40:05;101466.91;;;14.38;100.00
59757;BME280;45631;51.962;5.974;2023-05-07T00:42:35;101464.63;;;14.33;100.00
59757;BME280;45631;51.962;5.974;2023-05-07T00:45:04;101466.91;;;14.38;100.00
59757;BME280;45631;51.962;5.974;2023-05-07T00:47:33;101463.22;;;14.41;100.00
59757;BME280;45631;51.962;5.974;2023-05-07T00:50:01;101466.19;;;14.36;100.00
59757;BME280;45631;51.962;5.974;2023-05-07T00:52:31;101461.63;;;14.38;100.00
59757;BME280;45631;51.962;5.974;2023-05-07T00:55:01;101461.13;;;14.33;100.00
59757;BME280;45631;51.962;5.974;2023-05-07T00:57:33;101463.03;;;14.31;100.00
59757;BME280;45631;51.962;5.974;2023-05-07T01:00:04;101456.50;;;14.24;100.00
59757;BME280;45631;51.962;5.974;2023-05-07T01:02:34;101461.91;;;14.22;100.00
59757;BME280;45631;51.962;5.974;2023-05-07T01:05:09;101454.69;;;14.24;100.00
59757;BME280;45631;51.962;5.974;2023-05-07T01:07:42;101453.97;;;14.22;100.00
59757;BME280;45631;51.962;5.974;2023-05-07T01:10:11;101461.44;;;14.28;100.00
59757;BME280;45631;51.962;5.974;2023-05-07T01:12:40;101458.72;;;14.17;100.00
59757;BME280;45631;51.962;5.974;2023-05-07T01:15:12;101456.50;;;14.11;100.00
59757;BME280;45631;51.962;5.974;2023-05-07T01:17:42;101446.03;;;14.09;100.00
59757;BME280;45631;51.962;5.974;2023-05-07T01:20:11;101446.47;;;14.03;100.00
59757;BME280;45631;51.962;5.974;2023-05-07T01:22:43;101440.31;;;14.02;100.00
59757;BME280;45631;51.962;5.974;2023-05-07T01:25:11;101444.66;;;14.03;100.00
59757;BME280;45631;51.962;5.974;2023-05-07T01:27:40;101449.31;;;14.00;100.00
59757;BME280;45631;51.962;5.974;2023-05-07T01:30:08;101442.56;;;13.96;100.00
59757;BME280;45631;51.962;5.974;2023-05-07T01:32:45;101442.66;;;13.94;100.00
59757;BME280;45631;51.962;5.974;2023-05-07T01:35:18;101440.97;;;13.93;100.00
59757;BME280;45631;51.962;5.974;2023-05-07T01:37:51;101435.78;;;13.92;100.00
59757;BME280;45631;51.962;5.974;2023-05-07T01:40:21;101439.06;;;13.95;100.00
59757;BME280;45631;51.962;5.974;2023-05-07T01:42:49;101436.66;;;13.92;100.00
59757;BME280;45631;51.962;5.974;2023-05-07T01:45:17;101436.53;;;13.94;100.00
59757;BME280;45631;51.962;5.974;2023-05-07T01:47:45;101441.19;;;13.90;100.00
59757;BME280;45631;51.962;5.974;2023-05-07T01:50:18;101434.19;;;13.89;100.00
59757;BME280;45631;51.962;5.974;2023-05-07T01:52:49;101436.13;;;13.87;100.00
59757;BME280;45631;51.962;5.974;2023-05-07T01:55:19;101437.81;;;13.88;100.00
59757;BME280;45631;51.962;5.974;2023-05-07T01:57:47;101432.53;;;13.88;100.00
59757;BME280;45631;51.962;5.974;2023-05-07T02:00:15;101442.25;;;13.88;100.00
59757;BME280;45631;51.962;5.974;2023-05-07T02:02:44;101444.16;;;13.85;100.00
59757;BME280;45631;51.962;5.974;2023-05-07T02:05:12;101443.28;;;13.85;100.00
59757;BME280;45631;51.962;5.974;2023-05-07T02:07:40;101442.25;;;13.88;100.00
59757;BME280;45631;51.962;5.974;2023-05-07T02:10:09;101452.72;;;13.89;100.00
59757;BME280;45631;51.962;5.974;2023-05-07T02:12:39;101446.69;;;13.87;100.00
59757;BME280;45631;51.962;5.974;2023-05-07T02:15:07;101445.00;;;13.86;100.00
59757;BME280;45631;51.962;5.974;2023-05-07T02:17:39;101446.16;;;13.82;100.00
59757;BME280;45631;51.962;5.974;2023-05-07T02:20:28;101433.78;;;13.82;100.00
59757;BME280;45631;51.962;5.974;2023-05-07T02:22:56;101444.16;;;13.85;100.00
59757;BME280;45631;51.962;5.974;2023-05-07T02:25:24;101444.16;;;13.85;100.00
59757;BME280;45631;51.962;5.974;2023-05-07T02:27:53;101446.16;;;13.82;100.00
59757;BME280;45631;51.962;5.974;2023-05-07T02:30:21;101446.06;;;13.83;100.00
59757;BME280;45631;51.962;5.974;2023-05-07T02:32:50;101440.97;;;13.80;100.00
59757;BME280;45631;51.962;5.974;2023-05-07T02:35:18;101437.50;;;13.80;100.00
59757;BME280;45631;51.962;5.974;2023-05-07T02:37:46;101427.88;;;13.79;100.00
59757;BME280;45631;51.962;5.974;2023-05-07T02:40:18;101425.97;;;13.81;100.00
59757;BME280;45631;51.962;5.974;2023-05-07T02:42:49;101433.78;;;13.82;100.00
59757;BME280;45631;51.962;5.974;2023-05-07T02:45:18;101435.81;;;13.79;100.00
59757;BME280;45631;51.962;5.974;2023-05-07T02:47:46;101432.53;;;13.75;100.00
59757;BME280;45631;51.962;5.974;2023-05-07T02:50:14;101441.09;;;13.79;100.00
59757;BME280;45631;51.962;5.974;2023-05-07T02:52:42;101440.78;;;13.71;100.00
59757;BME280;45631;51.962;5.974;2023-05-07T02:55:11;101447.78;;;13.72;100.00
59757;BME280;45631;51.962;5.974;2023-05-07T02:57:39;101452.06;;;13.73;100.00
59757;BME280;45631;51.962;5.974;2023-05-07T03:00:11;101449.88;;;13.66;100.00
59757;BME280;45631;51.962;5.974;2023-05-07T03:02:41;101443.72;;;13.66;100.00
59757;BME280;45631;51.962;5.974;2023-05-07T03:05:09;101444.59;;;13.66;100.00
59757;BME280;45631;51.962;5.974;2023-05-07T03:07:37;101448.41;;;13.62;100.00
59757;BME280;45631;51.962;5.974;2023-05-07T03:10:06;101451.16;;;13.61;100.00
59757;BME280;45631;51.962;5.974;2023-05-07T03:12:34;101450.16;;;13.62;100.00
59757;BME280;45631;51.962;5.974;2023-05-07T03:15:03;101446.47;;;13.64;100.00
59757;BME280;45631;51.962;5.974;2023-05-07T03:17:31;101447.53;;;13.62;100.00
59757;BME280;45631;51.962;5.974;2023-05-07T03:20:01;101450.09;;;13.63;100.00
59757;BME280;45631;51.962;5.974;2023-05-07T03:22:29;101444.06;;;13.61;100.00
59757;BME280;45631;51.962;5.974;2023-05-07T03:24:57;101439.59;;;13.62;100.00
59757;BME280;45631;51.962;5.974;2023-05-07T03:27:28;101445.75;;;13.62;100.00
59757;BME280;45631;51.962;5.974;2023-05-07T03:29:56;101437.28;;;13.57;100.00
59757;BME280;45631;51.962;5.974;2023-05-07T03:32:24;101431.34;;;13.53;100.00
59757;BME280;45631;51.962;5.974;2023-05-07T03:34:53;101440.75;;;13.58;100.00
59757;BME280;45631;51.962;5.974;2023-05-07T03:37:24;101439.94;;;13.57;100.00
59757;BME280;45631;51.962;5.974;2023-05-07T03:39:53;101443.63;;;13.55;100.00
59757;BME280;45631;51.962;5.974;2023-05-07T03:42:21;101446.38;;;13.53;100.00
59757;BME280;45631;51.962;5.974;2023-05-07T03:44:49;101437.59;;;13.52;100.00
59757;BME280;45631;51.962;5.974;2023-05-07T03:47:17;101438.13;;;13.45;100.00
59757;BME280;45631;51.962;5.974;2023-05-07T03:49:45;101439.28;;;13.41;100.00
59757;BME280;45631;51.962;5.974;2023-05-07T03:52:14;101436.53;;;13.42;100.00
59757;BME280;45631;51.962;5.974;2023-05-07T03:54:44;101442.25;;;13.49;100.00
59757;BME280;45631;51.962;5.974;2023-05-07T03:57:12;101446.25;;;13.42;100.00
59757;BME280;45631;51.962;5.974;2023-05-07T03:59:40;101447.09;;;13.42;100.00
59757;BME280;45631;51.962;5.974;2023-05-07T04:02:08;101450.78;;;13.40;100.00
59757;BME280;45631;51.962;5.974;2023-05-07T04:04:39;101451.84;;;13.37;100.00
59757;BME280;45631;51.962;5.974;2023-05-07T04:07:07;101454.66;;;13.34;100.00
59757;BME280;45631;51.962;5.974;2023-05-07T04:09:36;101461.75;;;13.33;100.00
59757;BME280;45631;51.962;5.974;2023-05-07T04:12:06;101460.63;;;13.38;100.00
59757;BME280;45631;51.962;5.974;2023-05-07T04:14:34;101453.44;;;13.40;100.00
59757;BME280;45631;51.962;5.974;2023-05-07T04:17:05;101449.84;;;13.41;100.00
59757;BME280;45631;51.962;5.974;2023-05-07T04:19:33;101458.00;;;13.38;100.00
59757;BME280;45631;51.962;5.974;2023-05-07T04:22:04;101459.75;;;13.37;100.00
59757;BME280;45631;51.962;5.974;2023-05-07T04:24:35;101465.59;;;13.42;100.00
59757;BME280;45631;51.962;5.974;2023-05-07T04:27:03;101465.91;;;13.38;100.00
59757;BME280;45631;51.962;5.974;2023-05-07T04:29:34;101461.84;;;13.32;100.00
59757;BME280;45631;51.962;5.974;2023-05-07T04:32:02;101465.06;;;13.37;100.00
59757;BME280;45631;51.962;5.974;2023-05-07T04:34:30;101462.41;;;13.37;100.00
59757;BME280;45631;51.962;5.974;2023-05-07T04:36:59;101467.88;;;13.34;100.00
59757;BME280;45631;51.962;5.974;2023-05-07T04:39:27;101463.63;;;13.31;100.00
59757;BME280;45631;51.962;5.974;2023-05-07T04:41:55;101470.34;;;13.37;100.00
59757;BME280;45631;51.962;5.974;2023-05-07T04:44:23;101471.56;;;13.31;100.00
59757;BME280;45631;51.962;5.974;2023-05-07T04:46:53;101467.97;;;13.32;100.00
59757;BME280;45631;51.962;5.974;2023-05-07T04:49:21;101468.72;;;13.34;100.00
59757;BME280;45631;51.962;5.974;2023-05-07T04:51:49;101467.59;;;13.39;100.00
59757;BME280;45631;51.962;5.974;2023-05-07T04:54:20;101469.50;;;13.37;100.00
59757;BME280;45631;51.962;5.974;2023-05-07T04:56:48;101469.69;;;13.33;100.00
59757;BME280;45631;51.962;5.974;2023-05-07T04:59:16;101476.06;;;13.44;100.00
59757;BME280;45631;51.962;5.974;2023-05-07T05:01:47;101478.16;;;13.39;100.00
59757;BME280;45631;51.962;5.974;2023-05-07T05:04:16;101477.31;;;13.38;100.00
59757;BME280;45631;51.962;5.974;2023-05-07T05:06:44;101479.19;;;13.36;100.00
59757;BME280;45631;51.962;5.974;2023-05-07T05:09:15;101481.66;;;13.39;100.00
59757;BME280;45631;51.962;5.974;2023-05-07T05:11:44;101480.06;;;13.37;100.00
59757;BME280;45631;51.962;5.974;2023-05-07T05:14:12;101486.84;;;13.41;100.00
59757;BME280;45631;51.962;5.974;2023-05-07T05:16:41;101490.13;;;13.44;100.00
59757;BME280;45631;51.962;5.974;2023-05-07T05:19:09;101495.09;;;13.49;100.00
59757;BME280;45631;51.962;5.974;2023-05-07T05:21:38;101488.75;;;13.51;100.00
59757;BME280;45631;51.962;5.974;2023-05-07T05:24:07;101491.09;;;13.56;100.00
59757;BME280;45631;51.962;5.974;2023-05-07T05:26:35;101487.50;;;13.57;100.00
59757;BME280;45631;51.962;5.974;2023-05-07T05:29:03;101495.41;;;13.57;100.00
59757;BME280;45631;51.962;5.974;2023-05-07T05:31:31;101491.94;;;13.57;100.00
59757;BME280;45631;51.962;5.974;2023-05-07T05:34:00;101488.97;;;13.61;100.00
59757;BME280;45631;51.962;5.974;2023-05-07T05:36:31;101492.78;;;13.57;100.00
59757;BME280;45631;51.962;5.974;2023-05-07T05:39:00;101496.16;;;13.59;100.00
59757;BME280;45631;51.962;5.974;2023-05-07T05:41:28;101499.13;;;13.55;100.00
59757;BME280;45631;51.962;5.974;2023-05-07T05:43:56;101499.00;;;13.56;100.00
59757;BME280;45631;51.962;5.974;2023-05-07T05:46:24;101508.75;;;13.56;100.00
59757;BME280;45631;51.962;5.974;2023-05-07T05:48:53;101504.63;;;13.64;100.00
59757;BME280;45631;51.962;5.974;2023-05-07T05:51:21;101513.31;;;13.66;100.00
59757;BME280;45631;51.962;5.974;2023-05-07T05:53:49;101510.34;;;13.71;100.00
59757;BME280;45631;51.962;5.974;2023-05-07T05:56:19;101512.03;;;13.72;100.00
59757;BME280;45631;51.962;5.974;2023-05-07T05:58:47;101519.13;;;13.72;100.00
59757;BME280;45631;51.962;5.974;2023-05-07T06:01:17;101515.22;;;13.77;100.00
59757;BME280;45631;51.962;5.974;2023-05-07T06:03:45;101519.47;;;13.80;100.00
59757;BME280;45631;51.962;5.974;2023-05-07T06:06:13;101515.53;;;13.85;100.00
59757;BME280;45631;51.962;5.974;2023-05-07T06:08:42;101522.81;;;13.82;100.00
59757;BME280;45631;51.962;5.974;2023-05-07T06:11:10;101524.09;;;13.89;100.00
59757;BME280;45631;51.962;5.974;2023-05-07T06:13:39;101520.72;;;13.87;100.00
59757;BME280;45631;51.962;5.974;2023-05-07T06:16:10;101525.38;;;13.83;100.00
59757;BME280;45631;51.962;5.974;2023-05-07T06:18:38;101525.47;;;13.82;100.00
59757;BME280;45631;51.962;5.974;2023-05-07T06:21:06;101520.50;;;13.90;100.00
59757;BME280;45631;51.962;5.974;2023-05-07T06:23:34;101519.34;;;13.94;100.00
59757;BME280;45631;51.962;5.974;2023-05-07T06:26:03;101518.41;;;13.95;100.00
59757;BME280;45631;51.962;5.974;2023-05-07T06:28:31;101524.34;;;13.99;100.00
59757;BME280;45631;51.962;5.974;2023-05-07T06:31:14;101523.16;;;14.03;100.00
59757;BME280;45631;51.962;5.974;2023-05-07T06:33:44;101531.72;;;14.07;100.00
59757;BME280;45631;51.962;5.974;2023-05-07T06:36:12;101533.63;;;14.05;100.00
59757;BME280;45631;51.962;5.974;2023-05-07T06:38:40;101532.38;;;14.10;100.00
59757;BME280;45631;51.962;5.974;2023-05-07T06:41:08;101531.59;;;14.08;100.00
59757;BME280;45631;51.962;5.974;2023-05-07T06:43:36;101533.41;;;14.08;100.00
59757;BME280;45631;51.962;5.974;2023-05-07T06:46:05;101533.84;;;14.14;100.00
59757;BME280;45631;51.962;5.974;2023-05-07T06:48:34;101538.28;;;14.14;100.00
59757;BME280;45631;51.962;5.974;2023-05-07T06:51:02;101537.03;;;14.19;100.00
59757;BME280;45631;51.962;5.974;2023-05-07T06:53:35;101534.56;;;14.29;100.00
59757;BME280;45631;51.962;5.974;2023-05-07T06:56:03;101541.25;;;14.22;100.00
59757;BME280;45631;51.962;5.974;2023-05-07T06:58:32;101536.16;;;14.32;100.00
59757;BME280;45631;51.962;5.974;2023-05-07T07:01:00;101545.88;;;14.44;100.00
59757;BME280;45631;51.962;5.974;2023-05-07T07:03:28;101542.06;;;14.35;100.00
59757;BME280;45631;51.962;5.974;2023-05-07T07:05:57;101538.06;;;14.43;100.00
59757;BME280;45631;51.962;5.974;2023-05-07T07:08:28;101533.72;;;14.42;100.00
59757;BME280;45631;51.962;5.974;2023-05-07T07:10:56;101535.72;;;14.51;100.00
59757;BME280;45631;51.962;5.974;2023-05-07T07:13:24;101534.31;;;14.58;100.00
59757;BME280;45631;51.962;5.974;2023-05-07T07:15:52;101540.88;;;14.65;100.00
59757;BME280;45631;51.962;5.974;2023-05-07T07:18:21;101544.28;;;14.67;100.00
59757;BME280;45631;51.962;5.974;2023-05-07T07:20:49;101554.66;;;14.70;100.00
59757;BME280;45631;51.962;5.974;2023-05-07T07:23:20;101559.00;;;14.72;100.00
59757;BME280;45631;51.962;5.974;2023-05-07T07:25:48;101556.88;;;14.77;100.00
59757;BME280;45631;51.962;5.974;2023-05-07T07:28:17;101560.88;;;14.82;100.00
59757;BME280;45631;51.962;5.974;2023-05-07T07:30:45;101555.16;;;14.76;100.00
59757;BME280;45631;51.962;5.974;2023-05-07T07:33:13;101557.16;;;14.85;100.00
59757;BME280;45631;51.962;5.974;2023-05-07T07:35:41;101554.00;;;14.80;100.00
59757;BME280;45631;51.962;5.974;2023-05-07T07:38:12;101557.66;;;14.90;100.00
59757;BME280;45631;51.962;5.974;2023-05-07T07:40:41;101558.41;;;14.92;100.00
59757;BME280;45631;51.962;5.974;2023-05-07T07:43:10;101552.69;;;14.98;100.00
59757;BME280;45631;51.962;5.974;2023-05-07T07:45:38;101558.97;;;15.09;100.00
59757;BME280;45631;51.962;5.974;2023-05-07T07:48:07;101560.16;;;15.04;100.00
59757;BME280;45631;51.962;5.974;2023-05-07T07:50:35;101563.75;;;15.03;100.00
59757;BME280;45631;51.962;5.974;2023-05-07T07:53:14;101569.34;;;15.12;100.00
59757;BME280;45631;51.962;5.974;2023-05-07T07:55:44;101563.84;;;15.15;100.00
59757;BME280;45631;51.962;5.974;2023-05-07T07:58:15;101563.38;;;15.21;100.00
59757;BME280;45631;51.962;5.974;2023-05-07T08:00:43;101567.06;;;15.31;100.00
59757;BME280;45631;51.962;5.974;2023-05-07T08:03:14;101562.63;;;15.43;100.00
59757;BME280;45631;51.962;5.974;2023-05-07T08:05:43;101569.50;;;15.46;100.00
59757;BME280;45631;51.962;5.974;2023-05-07T08:08:11;101573.03;;;15.46;100.00
59757;BME280;45631;51.962;5.974;2023-05-07T08:10:39;101571.72;;;15.52;100.00
59757;BME280;45631;51.962;5.974;2023-05-07T08:13:09;101575.59;;;15.59;100.00
59757;BME280;45631;51.962;5.974;2023-05-07T08:15:37;101574.91;;;15.68;100.00
59757;BME280;45631;51.962;5.974;2023-05-07T08:18:07;101571.78;;;15.75;100.00
59757;BME280;45631;51.962;5.974;2023-05-07T08:20:36;101574.00;;;15.81;100.00
59757;BME280;45631;51.962;5.974;2023-05-07T08:23:06;101569.75;;;15.78;100.00
59757;BME280;45631;51.962;5.974;2023-05-07T08:25:36;101573.75;;;15.84;100.00
59757;BME280;45631;51.962;5.974;2023-05-07T08:28:04;101567.66;;;15.95;100.00
59757;BME280;45631;51.962;5.974;2023-05-07T08:30:36;101567.31;;;15.99;100.00
59757;BME280;45631;51.962;5.974;2023-05-07T08:33:04;101566.09;;;16.03;100.00
59757;BME280;45631;51.962;5.974;2023-05-07T08:35:33;101565.50;;;16.11;100.00
59757;BME280;45631;51.962;5.974;2023-05-07T08:38:01;101573.84;;;16.18;100.00
59757;BME280;45631;51.962;5.974;2023-05-07T08:40:33;101570.09;;;16.20;100.00
59757;BME280;45631;51.962;5.974;2023-05-07T08:43:05;101567.69;;;16.29;100.00
59757;BME280;45631;51.962;5.974;2023-05-07T08:45:35;101574.69;;;16.41;100.00
59757;BME280;45631;51.962;5.974;2023-05-07T08:48:09;101579.41;;;16.49;100.00
59757;BME280;45631;51.962;5.974;2023-05-07T08:50:41;101578.69;;;16.58;100.00
59757;BME280;45631;51.962;5.974;2023-05-07T08:53:10;101576.03;;;16.69;100.00
59757;BME280;45631;51.962;5.974;2023-05-07T08:55:38;101574.19;;;16.81;100.00
59757;BME280;45631;51.962;5.974;2023-05-07T08:58:08;101577.47;;;16.96;100.00
59757;BME280;45631;51.962;5.974;2023-05-07T09:00:39;101576.59;;;16.96;100.00
59757;BME280;45631;51.962;5.974;2023-05-07T09:03:08;101580.47;;;17.03;100.00
59757;BME280;45631;51.962;5.974;2023-05-07T09:05:39;101582.72;;;17.19;100.00
59757;BME280;45631;51.962;5.974;2023-05-07T09:08:07;101586.19;;;17.31;100.00
59757;BME280;45631;51.962;5.974;2023-05-07T09:10:36;101575.97;;;17.47;100.00
59757;BME280;45631;51.962;5.974;2023-05-07T09:13:04;101585.13;;;17.54;100.00
59757;BME280;45631;51.962;5.974;2023-05-07T09:15:32;101583.25;;;17.66;100.00
59757;BME280;45631;51.962;5.974;2023-05-07T09:18:01;101584.13;;;17.88;100.00
59757;BME280;45631;51.962;5.974;2023-05-07T09:20:30;101587.97;;;17.95;100.00
59757;BME280;45631;51.962;5.974;2023-05-07T09:22:58;101586.34;;;18.04;100.00
59757;BME280;45631;51.962;5.974;2023-05-07T09:25:30;101586.88;;;18.19;100.00
59757;BME280;45631;51.962;5.974;2023-05-07T09:27:59;101578.50;;;18.33;100.00
59757;BME280;45631;51.962;5.974;2023-05-07T09:30:28;101577.88;;;18.51;100.00
59757;BME280;45631;51.962;5.974;2023-05-07T09:32:58;101573.72;;;18.58;100.00
59757;BME280;45631;51.962;5.974;2023-05-07T09:35:31;101572.25;;;18.85;100.00
59757;BME280;45631;51.962;5.974;2023-05-07T09:38:00;101575.53;;;18.88;100.00
59757;BME280;45631;51.962;5.974;2023-05-07T09:40:33;101569.94;;;19.01;100.00
59757;BME280;45631;51.962;5.974;2023-05-07T09:43:09;101574.31;;;19.22;100.00
59757;BME280;45631;51.962;5.974;2023-05-07T09:45:38;101576.00;;;19.42;100.00
59757;BME280;45631;51.962;5.974;2023-05-07T09:48:06;101581.63;;;19.49;100.00
59757;BME280;45631;51.962;5.974;2023-05-07T09:50:43;101573.75;;;19.57;100.00
59757;BME280;45631;51.962;5.974;2023-05-07T09:53:16;101577.41;;;19.66;100.00
59757;BME280;45631;51.962;5.974;2023-05-07T09:55:45;101581.03;;;19.85;100.00
59757;BME280;45631;51.962;5.974;2023-05-07T09:58:14;101585.81;;;19.91;100.00
59757;BME280;45631;51.962;5.974;2023-05-07T10:00:46;101579.22;;;19.95;100.00
59757;BME280;45631;51.962;5.974;2023-05-07T10:03:15;101583.00;;;19.92;100.00
59757;BME280;45631;51.962;5.974;2023-05-07T10:05:45;101584.09;;;20.19;100.00
59757;BME280;45631;51.962;5.974;2023-05-07T10:08:14;101586.25;;;20.34;100.00
59757;BME280;45631;51.962;5.974;2023-05-07T10:10:44;101585.84;;;20.38;100.00
59757;BME280;45631;51.962;5.974;2023-05-07T10:13:13;101587.59;;;20.48;100.00
59757;BME280;45631;51.962;5.974;2023-05-07T10:15:41;101586.44;;;20.60;100.00
59757;BME280;45631;51.962;5.974;2023-05-07T10:18:09;101592.31;;;20.73;100.00
59757;BME280;45631;51.962;5.974;2023-05-07T10:20:42;101588.84;;;20.91;100.00
59757;BME280;45631;51.962;5.974;2023-05-07T10:23:13;101587.31;;;21.06;100.00
59757;BME280;45631;51.962;5.974;2023-05-07T10:25:42;101587.66;;;21.21;100.00
59757;BME280;45631;51.962;5.974;2023-05-07T10:28:17;101578.03;;;21.47;100.00
59757;BME280;45631;51.962;5.974;2023-05-07T10:30:56;101576.44;;;21.54;100.00
59757;BME280;45631;51.962;5.974;2023-05-07T10:33:29;101577.50;;;21.79;100.00
59757;BME280;45631;51.962;5.974;2023-05-07T10:36:00;101580.38;;;22.12;100.00
59757;BME280;45631;51.962;5.974;2023-05-07T10:38:32;101582.28;;;22.20;100.00
59757;BME280;45631;51.962;5.974;2023-05-07T10:41:01;101568.75;;;22.29;100.00
59757;BME280;45631;51.962;5.974;2023-05-07T10:43:41;101572.00;;;22.41;100.00
59757;BME280;45631;51.962;5.974;2023-05-07T10:46:10;101576.91;;;22.46;100.00
59757;BME280;45631;51.962;5.974;2023-05-07T10:49:06;101567.41;;;22.60;100.00
59757;BME280;45631;51.962;5.974;2023-05-07T10:51:34;101564.78;;;22.76;100.00
59757;BME280;45631;51.962;5.974;2023-05-07T10:54:20;101570.91;;;23.11;100.00
59757;BME280;45631;51.962;5.974;2023-05-07T10:56:49;101575.97;;;23.48;100.00
59757;BME280;45631;51.962;5.974;2023-05-07T10:59:31;101575.31;;;23.70;100.00
59757;BME280;45631;51.962;5.974;2023-05-07T11:02:01;101574.66;;;23.76;100.00
59757;BME280;45631;51.962;5.974;2023-05-07T11:04:31;101570.28;;;23.92;100.00
59757;BME280;45631;51.962;5.974;2023-05-07T11:07:29;101571.94;;;24.09;100.00
59757;BME280;45631;51.962;5.974;2023-05-07T11:10:03;101563.78;;;24.34;100.00
59757;BME280;45631;51.962;5.974;2023-05-07T11:12:52;101568.19;;;24.27;100.00
59757;BME280;45631;51.962;5.974;2023-05-07T11:15:38;101567.56;;;24.56;100.00
59757;BME280;45631;51.962;5.974;2023-05-07T11:18:08;101569.78;;;24.84;100.00
59757;BME280;45631;51.962;5.974;2023-05-07T11:20:52;101557.16;;;24.93;100.00
59757;BME280;45631;51.962;5.974;2023-05-07T11:26:47;101551.28;;;25.12;100.00
59757;BME280;45631;51.962;5.974;2023-05-07T11:29:17;101559.22;;;25.06;100.00
59757;BME280;45631;51.962;5.974;2023-05-07T11:31:48;101554.28;;;24.94;100.00
59757;BME280;45631;51.962;5.974;2023-05-07T11:34:21;101557.84;;;24.47;100.00
59757;BME280;45631;51.962;5.974;2023-05-07T11:36:50;101563.53;;;24.52;100.00
59757;BME280;45631;51.962;5.974;2023-05-07T11:39:28;101562.28;;;24.32;100.00
59757;BME280;45631;51.962;5.974;2023-05-07T11:41:58;101560.34;;;24.65;100.00
59757;BME280;45631;51.962;5.974;2023-05-07T11:44:41;101565.06;;;24.55;100.00
59757;BME280;45631;51.962;5.974;2023-05-07T11:47:10;101563.03;;;24.48;100.00
59757;BME280;45631;51.962;5.974;2023-05-07T11:49:38;101564.25;;;24.38;100.00
59757;BME280;45631;51.962;5.974;2023-05-07T11:52:07;101566.47;;;24.34;100.00
59757;BME280;45631;51.962;5.974;2023-05-07T11:54:38;101563.03;;;24.48;100.00
59757;BME280;45631;51.962;5.974;2023-05-07T11:57:14;101567.03;;;24.69;100.00
59757;BME280;45631;51.962;5.974;2023-05-07T11:59:42;101563.72;;;24.51;100.00
59757;BME280;45631;51.962;5.974;2023-05-07T12:02:13;101571.59;;;24.52;100.00
59757;BME280;45631;51.962;5.974;2023-05-07T12:04:42;101570.28;;;24.48;100.00
59757;BME280;45631;51.962;5.974;2023-05-07T12:07:13;101557.94;;;24.70;100.00
59757;BME280;45631;51.962;5.974;2023-05-07T12:09:42;101562.63;;;24.76;100.00
59757;BME280;45631;51.962;5.974;2023-05-07T12:12:13;101566.47;;;24.34;100.00
59757;BME280;45631;51.962;5.974;2023-05-07T12:14:43;101560.00;;;24.12;100.00
59757;BME280;45631;51.962;5.974;2023-05-07T12:17:13;101558.34;;;24.03;100.00
59757;BME280;45631;51.962;5.974;2023-05-07T12:19:43;101563.03;;;24.01;100.00
59757;BME280;45631;51.962;5.974;2023-05-07T12:22:12;101561.84;;;24.11;100.00
59757;BME280;45631;51.962;5.974;2023-05-07T12:24:44;101568.91;;;23.88;100.00
59757;BME280;45631;51.962;5.974;2023-05-07T12:27:15;101568.78;;;23.65;100.00
59757;BME280;45631;51.962;5.974;2023-05-07T12:29:44;101576.66;;;23.66;100.00
59757;BME280;45631;51.962;5.974;2023-05-07T12:32:16;101566.09;;;23.32;100.00
59757;BME280;45631;51.962;5.974;2023-05-07T12:34:45;101566.09;;;23.23;100.00
59757;BME280;45631;51.962;5.974;2023-05-07T12:37:13;101568.91;;;23.22;100.00
59757;BME280;45631;51.962;5.974;2023-05-07T12:39:46;101571.28;;;23.33;100.00
59757;BME280;45631;51.962;5.974;2023-05-07T12:42:16;101578.00;;;23.29;100.00
59757;BME280;45631;51.962;5.974;2023-05-07T12:44:50;101572.09;;;23.17;100.00
59757;BME280;45631;51.962;5.974;2023-05-07T12:47:19;101571.06;;;23.10;100.00
59757;BME280;45631;51.962;5.974;2023-05-07T12:49:48;101572.53;;;22.88;100.00
59757;BME280;45631;51.962;5.974;2023-05-07T12:52:16;101573.22;;;23.06;100.00
59757;BME280;45631;51.962;5.974;2023-05-07T12:54:44;101577.59;;;22.99;100.00
59757;BME280;45631;51.962;5.974;2023-05-07T12:57:19;101585.78;;;22.89;100.00